Terminal Aerodrome Forecast
Issued by NWS Pocatello, ID

Home | Current Version | Previous Version | Text Only | Print | Product List | Glossary On
Versions: 1 2 3 4 5 6 7 8 9 10 11 12 13 14 15 16 17
985
FTUS45 KPIH 270520
TAFIDA
TAF
KIDA 270520Z 2706/2806 VRB05KT P6SM -SHRA BKN025 BKN060
     FM270800 36005KT P6SM VCFG SCT005 SCT015
     FM271800 35006KT P6SM SCT020
     FM280200 VRB05KT P6SM SKC=

USA.gov is the U.S. government's official web portal to all federal, state and local government web resources and services.